Airfield :
LOGIN :

Register | Disclaimer

   EN    FR    IT 

 










Legend :    VFR   Marginal VFR   IFR   Intensive IFR   Very Intensive IFR
Visi :
Ceiling :
>= 8 km
>= 3000ft
5 to 8 km
1000 to 3000 ft
1500m to 5 km
500 to 1000 ft
800 to 1500m
200 to 500 ft
< 800m
< 200 ft
Symbols :   Thunderstorms  Fog  Heavy snow  Heavy precipitations  Wind > 20 kt
SIGMETs :     Misc.  Thunderstorms  Icing  Turbulence  Mountain Waves  Volcanic Ashes







- Airport Elevation : 863 ft
- IATA code : ZAZ


LEZG - Zaragoza Aragon

CURRENT METAR :
  • 171100Z 10006KT 060V130 CAVOK 10/M05 Q1026

EXPIRED METARs :
  • 171030Z 10004KT 060V160 CAVOK 09/M04 Q1026
  • 171000Z 11003KT 050V160 CAVOK 08/M05 Q1026
  • 170930Z 10005KT CAVOK 06/M04 Q1026
  • 170900Z 11004KT 070V140 CAVOK 05/M04 Q1027
  • 170830Z 10004KT CAVOK 04/M03 Q1027

TAF TAF LEZG
Valid from the 17 at 12:00 until the 18 at 12:00 UTC


171100Z 1712/1812 10005KT 9999 FEW020 TX17/1715Z TN04/1807Z
TEMPO 1712/1720 10011KT
No reported NOTAMs for that airfield.
1 SIGMET reported for the Madrid FIR (LECM) :
 
Severe mountain waves
LECM SIGMET 3 VALID 170900/171200 LEVA
LECM MADRID FIR/UIR SEV MTW OBS AT 0845Z WI N4344 W00607 - N4249 W00607 - N4245 W00322 - N4341 W00322 - N4344 W00607 SFC/FL300 STNR NC=



MET'MAP, your aeronautical weather chart ! - Copyright ORBIFLY December 2007 - Disclaimer

ORBIFLY MET'MAP TEAM :

Programming & Development : Alexandra Zaïnal
Concept & Development : Baudouin d'Aumeries
Co-Development & Prog : Marc-Olivier Méhu
Technical & hardware support : Manuel Goepfert

Contact : metmap@orbifly.com




SOURCES & CREDITS :

   NOAA